sensor_id;sensor_type;location;lat;lon;timestamp;pressure;altitude;pressure_sealevel;temperature;humidity
55317;BME280;41178;48.956;8.130;2024-03-08T00:03:42;99588.28;;;9.80;40.62
55317;BME280;41178;48.956;8.130;2024-03-08T00:08:44;99461.16;;;10.07;40.77
55317;BME280;41178;48.956;8.130;2024-03-08T00:13:46;99535.00;;;10.23;39.98
55317;BME280;41178;48.956;8.130;2024-03-08T00:18:48;99444.50;;;10.05;40.64
55317;BME280;41178;48.956;8.130;2024-03-08T00:23:50;99384.72;;;10.62;40.08
55317;BME280;41178;48.956;8.130;2024-03-08T00:28:52;99478.94;;;10.58;39.39
55317;BME280;41178;48.956;8.130;2024-03-08T00:33:55;99434.19;;;10.66;39.75
55317;BME280;41178;48.956;8.130;2024-03-08T00:38:58;99585.41;;;8.59;41.91
55317;BME280;41178;48.956;8.130;2024-03-08T00:44:02;99372.53;;;10.53;40.36
55317;BME280;41178;48.956;8.130;2024-03-08T00:49:06;99565.06;;;8.89;41.42
55317;BME280;41178;48.956;8.130;2024-03-08T00:54:08;99509.44;;;8.78;41.85
55317;BME280;41178;48.956;8.130;2024-03-08T00:59:09;99427.03;;;9.72;40.52
55317;BME280;41178;48.956;8.130;2024-03-08T01:04:12;99370.66;;;10.04;40.75
55317;BME280;41178;48.956;8.130;2024-03-08T01:09:13;99364.44;;;9.82;40.79
55317;BME280;41178;48.956;8.130;2024-03-08T01:14:16;99451.81;;;8.92;41.84
55317;BME280;41178;48.956;8.130;2024-03-08T01:19:18;99401.41;;;9.27;41.05
55317;BME280;41178;48.956;8.130;2024-03-08T01:24:20;99336.03;;;9.08;41.99
55317;BME280;41178;48.956;8.130;2024-03-08T01:29:21;99297.75;;;8.85;42.34
55317;BME280;41178;48.956;8.130;2024-03-08T01:34:24;99357.19;;;9.39;41.16
55317;BME280;41178;48.956;8.130;2024-03-08T01:39:25;99440.78;;;8.72;41.40
55317;BME280;41178;48.956;8.130;2024-03-08T01:44:27;99289.03;;;8.92;41.99
55317;BME280;41178;48.956;8.130;2024-03-08T01:49:29;99342.34;;;8.62;41.89
55317;BME280;41178;48.956;8.130;2024-03-08T01:54:31;99386.38;;;9.40;40.25
55317;BME280;41178;48.956;8.130;2024-03-08T01:59:33;99442.72;;;9.01;40.70
55317;BME280;41178;48.956;8.130;2024-03-08T02:04:35;99422.28;;;7.78;42.72
55317;BME280;41178;48.956;8.130;2024-03-08T02:09:37;99300.34;;;8.94;41.44
55317;BME280;41178;48.956;8.130;2024-03-08T02:14:39;99370.06;;;8.76;41.07
55317;BME280;41178;48.956;8.130;2024-03-08T02:19:41;99397.13;;;8.73;40.84
55317;BME280;41178;48.956;8.130;2024-03-08T02:24:43;99423.22;;;8.16;41.50
55317;BME280;41178;48.956;8.130;2024-03-08T02:29:45;99345.06;;;8.01;42.38
55317;BME280;41178;48.956;8.130;2024-03-08T02:34:47;99292.78;;;8.82;41.26
55317;BME280;41178;48.956;8.130;2024-03-08T02:39:49;99274.81;;;8.32;41.96
55317;BME280;41178;48.956;8.130;2024-03-08T02:44:51;99221.88;;;10.18;40.20
55317;BME280;41178;48.956;8.130;2024-03-08T02:49:53;99331.56;;;8.93;40.72
55317;BME280;41178;48.956;8.130;2024-03-08T02:54:55;99419.16;;;8.05;41.50
55317;BME280;41178;48.956;8.130;2024-03-08T02:59:56;99272.84;;;9.30;40.27
55317;BME280;41178;48.956;8.130;2024-03-08T03:04:58;99298.19;;;8.29;41.72
55317;BME280;41178;48.956;8.130;2024-03-08T03:10:00;99338.81;;;7.94;41.63
55317;BME280;41178;48.956;8.130;2024-03-08T03:15:02;99262.72;;;8.29;41.67
55317;BME280;41178;48.956;8.130;2024-03-08T03:20:08;99436.38;;;7.55;41.62
55317;BME280;41178;48.956;8.130;2024-03-08T03:25:15;99346.13;;;8.15;41.35
55317;BME280;41178;48.956;8.130;2024-03-08T03:30:24;99265.03;;;7.94;41.97
55317;BME280;41178;48.956;8.130;2024-03-08T03:35:28;99209.81;;;8.77;40.90
55317;BME280;41178;48.956;8.130;2024-03-08T03:40:31;99238.72;;;8.29;41.34
55317;BME280;41178;48.956;8.130;2024-03-08T03:45:33;99376.81;;;7.79;41.29
55317;BME280;41178;48.956;8.130;2024-03-08T03:50:38;99344.84;;;8.10;40.59
55317;BME280;41178;48.956;8.130;2024-03-08T03:55:41;99234.41;;;8.88;40.53
55317;BME280;41178;48.956;8.130;2024-03-08T04:00:44;99435.03;;;7.99;40.18
55317;BME280;41178;48.956;8.130;2024-03-08T04:05:46;99214.84;;;9.02;40.17
55317;BME280;41178;48.956;8.130;2024-03-08T04:10:47;99212.78;;;8.38;41.23
55317;BME280;41178;48.956;8.130;2024-03-08T04:15:49;99327.75;;;6.38;43.46
55317;BME280;41178;48.956;8.130;2024-03-08T04:20:51;99139.44;;;7.97;42.27
55317;BME280;41178;48.956;8.130;2024-03-08T04:25:52;99263.09;;;6.46;43.46
55317;BME280;41178;48.956;8.130;2024-03-08T04:30:54;99366.91;;;5.62;44.30
55317;BME280;41178;48.956;8.130;2024-03-08T04:35:56;99388.78;;;4.61;45.56
55317;BME280;41178;48.956;8.130;2024-03-08T04:40:58;99162.22;;;8.00;41.91
55317;BME280;41178;48.956;8.130;2024-03-08T04:46:00;99106.78;;;7.65;42.42
55317;BME280;41178;48.956;8.130;2024-03-08T04:51:05;99248.78;;;6.63;42.83
55317;BME280;41178;48.956;8.130;2024-03-08T04:56:07;99189.09;;;7.52;41.78
55317;BME280;41178;48.956;8.130;2024-03-08T05:01:09;99241.13;;;6.69;42.52
55317;BME280;41178;48.956;8.130;2024-03-08T05:06:12;99263.09;;;8.56;39.73
55317;BME280;41178;48.956;8.130;2024-03-08T05:11:14;99175.09;;;8.11;40.63
55317;BME280;41178;48.956;8.130;2024-03-08T05:16:16;99334.75;;;7.04;41.32
55317;BME280;41178;48.956;8.130;2024-03-08T05:21:17;99258.34;;;6.89;42.07
55317;BME280;41178;48.956;8.130;2024-03-08T05:26:21;99288.94;;;6.85;41.69
55317;BME280;41178;48.956;8.130;2024-03-08T05:31:23;99262.16;;;7.26;41.13
55317;BME280;41178;48.956;8.130;2024-03-08T05:36:25;99277.63;;;5.61;43.60
55317;BME280;41178;48.956;8.130;2024-03-08T05:41:27;99101.13;;;7.98;41.15
55317;BME280;41178;48.956;8.130;2024-03-08T05:46:29;99243.84;;;8.75;38.98
55317;BME280;41178;48.956;8.130;2024-03-08T05:51:34;99230.59;;;8.52;39.29
55317;BME280;41178;48.956;8.130;2024-03-08T05:56:38;99334.06;;;8.04;39.39
55317;BME280;41178;48.956;8.130;2024-03-08T06:01:40;99138.22;;;8.29;40.40
55317;BME280;41178;48.956;8.130;2024-03-08T06:06:44;99232.31;;;7.08;41.47
55317;BME280;41178;48.956;8.130;2024-03-08T06:11:48;99283.19;;;7.13;41.08
55317;BME280;41178;48.956;8.130;2024-03-08T06:16:50;99274.09;;;6.99;41.47
55317;BME280;41178;48.956;8.130;2024-03-08T06:21:52;99112.72;;;8.57;40.36
55317;BME280;41178;48.956;8.130;2024-03-08T06:26:53;99252.66;;;9.06;38.56
55317;BME280;41178;48.956;8.130;2024-03-08T06:31:55;99269.31;;;9.44;37.83
55317;BME280;41178;48.956;8.130;2024-03-08T06:36:58;99328.59;;;5.98;42.48
55317;BME280;41178;48.956;8.130;2024-03-08T06:42:02;99248.97;;;9.65;38.11
55317;BME280;41178;48.956;8.130;2024-03-08T06:47:04;99264.25;;;7.62;40.68
55317;BME280;41178;48.956;8.130;2024-03-08T06:52:07;99315.91;;;7.53;40.79
55317;BME280;41178;48.956;8.130;2024-03-08T06:57:10;99176.72;;;8.57;40.38
55317;BME280;41178;48.956;8.130;2024-03-08T07:02:12;99397.19;;;7.32;40.70
55317;BME280;41178;48.956;8.130;2024-03-08T07:07:13;99282.25;;;8.21;40.20
55317;BME280;41178;48.956;8.130;2024-03-08T07:12:16;99366.63;;;7.20;41.18
55317;BME280;41178;48.956;8.130;2024-03-08T07:17:18;99132.19;;;8.21;41.37
55317;BME280;41178;48.956;8.130;2024-03-08T07:22:20;99288.13;;;7.24;41.47
55317;BME280;41178;48.956;8.130;2024-03-08T07:27:23;99165.97;;;7.90;41.25
55317;BME280;41178;48.956;8.130;2024-03-08T07:32:25;99278.56;;;7.38;41.70
55317;BME280;41178;48.956;8.130;2024-03-08T07:37:28;99207.72;;;8.13;40.82
55317;BME280;41178;48.956;8.130;2024-03-08T07:42:29;99224.94;;;7.87;41.33
55317;BME280;41178;48.956;8.130;2024-03-08T07:47:31;99276.28;;;7.27;41.60
55317;BME280;41178;48.956;8.130;2024-03-08T07:52:35;99147.91;;;8.67;40.55
55317;BME280;41178;48.956;8.130;2024-03-08T07:57:37;99331.28;;;8.35;40.04
55317;BME280;41178;48.956;8.130;2024-03-08T08:02:39;99253.63;;;8.68;40.01
55317;BME280;41178;48.956;8.130;2024-03-08T08:07:44;99226.47;;;9.52;39.12
55317;BME280;41178;48.956;8.130;2024-03-08T08:12:45;99356.13;;;8.89;39.15
55317;BME280;41178;48.956;8.130;2024-03-08T08:17:47;99216.06;;;10.07;38.46
55317;BME280;41178;48.956;8.130;2024-03-08T08:22:49;99174.44;;;9.98;39.03
55317;BME280;41178;48.956;8.130;2024-03-08T08:27:51;99247.28;;;9.57;39.09
55317;BME280;41178;48.956;8.130;2024-03-08T08:32:55;99270.69;;;8.59;40.14
55317;BME280;41178;48.956;8.130;2024-03-08T08:37:59;99155.03;;;10.66;38.47
55317;BME280;41178;48.956;8.130;2024-03-08T08:43:02;99268.28;;;9.67;38.99
55317;BME280;41178;48.956;8.130;2024-03-08T08:48:07;99209.78;;;9.93;39.15
55317;BME280;41178;48.956;8.130;2024-03-08T08:53:08;99212.06;;;9.96;39.05
55317;BME280;41178;48.956;8.130;2024-03-08T08:58:11;99280.19;;;8.76;39.96
55317;BME280;41178;48.956;8.130;2024-03-08T09:03:12;99368.59;;;8.73;39.52
55317;BME280;41178;48.956;8.130;2024-03-08T09:08:14;99308.16;;;9.25;40.03
55317;BME280;41178;48.956;8.130;2024-03-08T09:13:16;99253.38;;;9.72;39.34
55317;BME280;41178;48.956;8.130;2024-03-08T09:18:31;99161.13;;;10.40;38.64
55317;BME280;41178;48.956;8.130;2024-03-08T09:23:33;99166.75;;;10.17;38.72
55317;BME280;41178;48.956;8.130;2024-03-08T09:28:35;99201.66;;;10.78;38.37
55317;BME280;41178;48.956;8.130;2024-03-08T09:33:37;99272.34;;;10.62;38.16
55317;BME280;41178;48.956;8.130;2024-03-08T09:38:40;99307.16;;;10.06;38.67
55317;BME280;41178;48.956;8.130;2024-03-08T09:43:45;99207.22;;;11.65;37.44
55317;BME280;41178;48.956;8.130;2024-03-08T09:48:47;99235.13;;;10.67;38.48
55317;BME280;41178;48.956;8.130;2024-03-08T09:53:49;99136.25;;;11.94;37.49
55317;BME280;41178;48.956;8.130;2024-03-08T09:58:50;99202.16;;;11.15;38.00
55317;BME280;41178;48.956;8.130;2024-03-08T10:04:12;99245.38;;;12.21;36.94
55317;BME280;41178;48.956;8.130;2024-03-08T10:09:15;99187.81;;;11.43;37.86
55317;BME280;41178;48.956;8.130;2024-03-08T10:14:18;99332.13;;;9.76;38.78
55317;BME280;41178;48.956;8.130;2024-03-08T10:19:20;99201.06;;;10.89;37.88
55317;BME280;41178;48.956;8.130;2024-03-08T10:24:23;99131.78;;;11.81;37.82
55317;BME280;41178;48.956;8.130;2024-03-08T10:29:25;99164.94;;;11.87;37.39
55317;BME280;41178;48.956;8.130;2024-03-08T10:34:27;99300.09;;;10.26;38.52
55317;BME280;41178;48.956;8.130;2024-03-08T10:39:35;99113.81;;;11.62;37.92
55317;BME280;41178;48.956;8.130;2024-03-08T10:44:48;99176.03;;;10.62;38.72
55317;BME280;41178;48.956;8.130;2024-03-08T10:50:04;99159.47;;;10.80;38.24
55317;BME280;41178;48.956;8.130;2024-03-08T10:55:12;99194.31;;;11.00;38.41
55317;BME280;41178;48.956;8.130;2024-03-08T11:11:38;99188.59;;;9.06;40.72
55317;BME280;41178;48.956;8.130;2024-03-08T11:16:44;99140.97;;;9.74;39.85
55317;BME280;41178;48.956;8.130;2024-03-08T11:21:46;99032.19;;;10.71;39.29
55317;BME280;41178;48.956;8.130;2024-03-08T11:26:48;99151.34;;;10.19;39.48
55317;BME280;41178;48.956;8.130;2024-03-08T11:31:50;99141.22;;;11.97;37.65
55317;BME280;41178;48.956;8.130;2024-03-08T11:36:53;99120.03;;;11.49;38.34
55317;BME280;41178;48.956;8.130;2024-03-08T11:41:57;99095.50;;;9.67;40.03
55317;BME280;41178;48.956;8.130;2024-03-08T11:47:00;99204.03;;;9.96;39.79
55317;BME280;41178;48.956;8.130;2024-03-08T11:52:02;99214.50;;;9.27;39.73
55317;BME280;41178;48.956;8.130;2024-03-08T11:57:04;99046.22;;;11.67;37.73
55317;BME280;41178;48.956;8.130;2024-03-08T12:02:06;99074.78;;;9.76;40.13
55317;BME280;41178;48.956;8.130;2024-03-08T12:07:10;98987.31;;;9.85;39.95
55317;BME280;41178;48.956;8.130;2024-03-08T12:12:13;98950.19;;;10.17;40.42
55317;BME280;41178;48.956;8.130;2024-03-08T12:17:15;99081.16;;;10.10;39.20
55317;BME280;41178;48.956;8.130;2024-03-08T12:22:17;99009.59;;;10.12;39.57
55317;BME280;41178;48.956;8.130;2024-03-08T12:27:19;99080.88;;;9.91;40.14
55317;BME280;41178;48.956;8.130;2024-03-08T12:32:21;99083.25;;;9.51;40.27
55317;BME280;41178;48.956;8.130;2024-03-08T12:37:25;99099.16;;;8.73;40.92
55317;BME280;41178;48.956;8.130;2024-03-08T12:42:27;98986.13;;;9.24;40.75
55317;BME280;41178;48.956;8.130;2024-03-08T12:47:28;98951.59;;;8.94;41.32
55317;BME280;41178;48.956;8.130;2024-03-08T12:52:30;98987.91;;;9.45;40.54
55317;BME280;41178;48.956;8.130;2024-03-08T12:57:33;98939.50;;;10.17;39.92
55317;BME280;41178;48.956;8.130;2024-03-08T13:02:36;98985.41;;;10.33;39.55
55317;BME280;41178;48.956;8.130;2024-03-08T13:07:38;98986.31;;;11.07;38.92
55317;BME280;41178;48.956;8.130;2024-03-08T13:12:43;98901.81;;;11.32;38.92
55317;BME280;41178;48.956;8.130;2024-03-08T13:17:44;99076.94;;;11.51;38.13
55317;BME280;41178;48.956;8.130;2024-03-08T13:22:48;98974.97;;;11.39;38.83
55317;BME280;41178;48.956;8.130;2024-03-08T13:27:49;99042.63;;;10.46;39.44
55317;BME280;41178;48.956;8.130;2024-03-08T13:32:52;99082.47;;;9.57;39.84
55317;BME280;41178;48.956;8.130;2024-03-08T13:37:55;98878.41;;;11.66;38.96
55317;BME280;41178;48.956;8.130;2024-03-08T13:42:57;98980.06;;;11.54;38.48
55317;BME280;41178;48.956;8.130;2024-03-08T13:47:59;98953.19;;;9.45;40.64
55317;BME280;41178;48.956;8.130;2024-03-08T13:53:01;99038.28;;;9.83;39.69
55317;BME280;41178;48.956;8.130;2024-03-08T13:58:03;98943.88;;;10.51;39.86
55317;BME280;41178;48.956;8.130;2024-03-08T14:03:05;98989.84;;;10.00;40.04
55317;BME280;41178;48.956;8.130;2024-03-08T14:08:07;98923.75;;;12.44;37.49
55317;BME280;41178;48.956;8.130;2024-03-08T14:13:09;98955.41;;;10.58;39.35
55317;BME280;41178;48.956;8.130;2024-03-08T14:18:13;98860.34;;;10.76;39.61
55317;BME280;41178;48.956;8.130;2024-03-08T14:23:15;98846.94;;;10.96;39.72
55317;BME280;41178;48.956;8.130;2024-03-08T14:28:16;98879.88;;;10.96;39.50
55317;BME280;41178;48.956;8.130;2024-03-08T14:33:20;98945.97;;;10.96;38.58
55317;BME280;41178;48.956;8.130;2024-03-08T14:38:22;98881.31;;;10.45;40.01
55317;BME280;41178;48.956;8.130;2024-03-08T14:43:24;98899.59;;;11.15;39.04
55317;BME280;41178;48.956;8.130;2024-03-08T14:48:26;99002.19;;;10.76;38.75
55317;BME280;41178;48.956;8.130;2024-03-08T14:53:27;98787.53;;;11.19;39.10
55317;BME280;41178;48.956;8.130;2024-03-08T14:58:29;98840.22;;;11.32;38.64
55317;BME280;41178;48.956;8.130;2024-03-08T15:03:31;98760.25;;;11.35;39.75
55317;BME280;41178;48.956;8.130;2024-03-08T15:08:35;98803.13;;;10.83;39.70
55317;BME280;41178;48.956;8.130;2024-03-08T15:13:37;98831.28;;;10.93;39.09
55317;BME280;41178;48.956;8.130;2024-03-08T15:18:43;98764.63;;;12.00;37.83
55317;BME280;41178;48.956;8.130;2024-03-08T15:23:52;98697.34;;;12.27;38.59
55317;BME280;41178;48.956;8.130;2024-03-08T15:28:56;98731.72;;;13.22;37.12
55317;BME280;41178;48.956;8.130;2024-03-08T15:33:58;98839.13;;;10.34;39.11
55317;BME280;41178;48.956;8.130;2024-03-08T15:39:08;98858.25;;;11.56;38.31
55317;BME280;41178;48.956;8.130;2024-03-08T15:44:11;98691.16;;;11.19;39.29
55317;BME280;41178;48.956;8.130;2024-03-08T15:49:13;98750.81;;;10.74;39.43
55317;BME280;41178;48.956;8.130;2024-03-08T15:54:15;98700.69;;;11.40;38.65
55317;BME280;41178;48.956;8.130;2024-03-08T15:59:17;98759.09;;;11.24;38.92
55317;BME280;41178;48.956;8.130;2024-03-08T16:04:19;98755.78;;;11.61;38.53
55317;BME280;41178;48.956;8.130;2024-03-08T16:09:22;98788.16;;;11.21;38.37
55317;BME280;41178;48.956;8.130;2024-03-08T16:14:26;98821.25;;;11.33;38.06
55317;BME280;41178;48.956;8.130;2024-03-08T16:19:28;98685.47;;;12.34;37.92
55317;BME280;41178;48.956;8.130;2024-03-08T16:24:32;98759.44;;;11.35;37.96
55317;BME280;41178;48.956;8.130;2024-03-08T16:29:35;98734.22;;;12.06;37.30
55317;BME280;41178;48.956;8.130;2024-03-08T16:34:37;98734.31;;;12.62;36.90
55317;BME280;41178;48.956;8.130;2024-03-08T16:39:40;98781.97;;;12.85;36.42
55317;BME280;41178;48.956;8.130;2024-03-08T16:44:41;98763.25;;;10.42;38.90
55317;BME280;41178;48.956;8.130;2024-03-08T16:49:43;98771.53;;;12.58;36.84
55317;BME280;41178;48.956;8.130;2024-03-08T16:54:45;98824.63;;;11.67;37.14
55317;BME280;41178;48.956;8.130;2024-03-08T16:59:57;98707.50;;;12.18;36.83
55317;BME280;41178;48.956;8.130;2024-03-08T17:04:59;98820.91;;;12.00;36.35
55317;BME280;41178;48.956;8.130;2024-03-08T17:10:02;98791.41;;;12.00;36.76
55317;BME280;41178;48.956;8.130;2024-03-08T17:15:16;98838.03;;;11.99;36.26
55317;BME280;41178;48.956;8.130;2024-03-08T17:20:25;98781.16;;;10.41;38.62
55317;BME280;41178;48.956;8.130;2024-03-08T17:25:27;98800.66;;;10.75;37.91
55317;BME280;41178;48.956;8.130;2024-03-08T17:30:31;98725.44;;;10.97;38.04
55317;BME280;41178;48.956;8.130;2024-03-08T17:35:34;98710.81;;;12.20;36.62
55317;BME280;41178;48.956;8.130;2024-03-08T17:40:39;98757.59;;;12.49;36.36
55317;BME280;41178;48.956;8.130;2024-03-08T17:45:42;98760.81;;;12.33;36.49
55317;BME280;41178;48.956;8.130;2024-03-08T17:50:48;98712.13;;;12.73;36.64
55317;BME280;41178;48.956;8.130;2024-03-08T17:55:57;98736.59;;;11.96;37.60
55317;BME280;41178;48.956;8.130;2024-03-08T18:00:59;98748.19;;;11.58;38.11
55317;BME280;41178;48.956;8.130;2024-03-08T18:06:00;98778.13;;;11.03;38.68
55317;BME280;41178;48.956;8.130;2024-03-08T18:11:06;98701.72;;;11.96;38.01
55317;BME280;41178;48.956;8.130;2024-03-08T18:16:09;98703.81;;;11.69;38.07
55317;BME280;41178;48.956;8.130;2024-03-08T18:21:13;98781.03;;;11.40;38.05
55317;BME280;41178;48.956;8.130;2024-03-08T18:26:14;98761.03;;;11.49;38.17
55317;BME280;41178;48.956;8.130;2024-03-08T18:31:18;98732.72;;;11.92;38.20
55317;BME280;41178;48.956;8.130;2024-03-08T18:36:22;98608.59;;;13.73;36.53
55317;BME280;41178;48.956;8.130;2024-03-08T18:41:25;98733.47;;;11.99;37.67
55317;BME280;41178;48.956;8.130;2024-03-08T18:46:35;98663.03;;;13.45;36.73
55317;BME280;41178;48.956;8.130;2024-03-08T18:51:40;98714.59;;;12.31;37.73
55317;BME280;41178;48.956;8.130;2024-03-08T18:56:41;98751.03;;;11.70;38.14
55317;BME280;41178;48.956;8.130;2024-03-08T19:01:43;98687.97;;;12.54;37.28
55317;BME280;41178;48.956;8.130;2024-03-08T19:06:49;98651.31;;;13.39;36.41
55317;BME280;41178;48.956;8.130;2024-03-08T19:11:52;98680.66;;;13.10;36.55
55317;BME280;41178;48.956;8.130;2024-03-08T19:16:56;98669.84;;;11.88;38.47
55317;BME280;41178;48.956;8.130;2024-03-08T19:21:58;98732.09;;;11.65;37.97
55317;BME280;41178;48.956;8.130;2024-03-08T19:27:02;98681.94;;;11.40;38.70
55317;BME280;41178;48.956;8.130;2024-03-08T19:32:08;98616.75;;;13.90;36.28
55317;BME280;41178;48.956;8.130;2024-03-08T19:37:12;98632.31;;;13.10;36.51
55317;BME280;41178;48.956;8.130;2024-03-08T19:42:15;98662.50;;;12.94;36.79
55317;BME280;41178;48.956;8.130;2024-03-08T19:47:17;98697.09;;;11.85;38.13
55317;BME280;41178;48.956;8.130;2024-03-08T19:52:18;98629.66;;;12.25;37.71
55317;BME280;41178;48.956;8.130;2024-03-08T19:57:22;98737.28;;;11.21;38.36
55317;BME280;41178;48.956;8.130;2024-03-08T20:02:24;98653.16;;;12.48;37.37
55317;BME280;41178;48.956;8.130;2024-03-08T20:07:29;98756.22;;;11.65;37.60
55317;BME280;41178;48.956;8.130;2024-03-08T20:12:31;98644.94;;;13.52;36.05
55317;BME280;41178;48.956;8.130;2024-03-08T20:17:33;98666.00;;;12.02;37.83
55317;BME280;41178;48.956;8.130;2024-03-08T20:22:35;98715.63;;;11.22;38.68
55317;BME280;41178;48.956;8.130;2024-03-08T20:27:37;98668.81;;;11.89;38.06
55317;BME280;41178;48.956;8.130;2024-03-08T20:32:45;98714.91;;;11.40;38.26
55317;BME280;41178;48.956;8.130;2024-03-08T20:37:48;98659.44;;;11.16;38.86
55317;BME280;41178;48.956;8.130;2024-03-08T20:42:50;98606.00;;;12.03;38.02
55317;BME280;41178;48.956;8.130;2024-03-08T20:47:52;98679.69;;;10.53;39.36
55317;BME280;41178;48.956;8.130;2024-03-08T20:52:54;98519.06;;;11.92;38.73
55317;BME280;41178;48.956;8.130;2024-03-08T20:57:56;98648.22;;;11.00;39.00
55317;BME280;41178;48.956;8.130;2024-03-08T21:02:58;98611.41;;;11.21;38.72
55317;BME280;41178;48.956;8.130;2024-03-08T21:08:00;98636.44;;;11.33;38.28
55317;BME280;41178;48.956;8.130;2024-03-08T21:13:03;98672.38;;;11.25;38.21
55317;BME280;41178;48.956;8.130;2024-03-08T21:18:06;98697.25;;;10.94;38.46
55317;BME280;41178;48.956;8.130;2024-03-08T21:23:12;98608.84;;;11.07;38.93
55317;BME280;41178;48.956;8.130;2024-03-08T21:28:16;98656.97;;;10.76;38.65
55317;BME280;41178;48.956;8.130;2024-03-08T21:33:20;98561.00;;;12.05;37.50
55317;BME280;41178;48.956;8.130;2024-03-08T21:38:22;98510.47;;;12.21;37.30
55317;BME280;41178;48.956;8.130;2024-03-08T21:43:27;98577.88;;;11.87;37.42
55317;BME280;41178;48.956;8.130;2024-03-08T21:48:29;98668.72;;;10.61;38.55
55317;BME280;41178;48.956;8.130;2024-03-08T21:53:31;98565.13;;;12.57;36.26
55317;BME280;41178;48.956;8.130;2024-03-08T21:58:36;98634.69;;;11.77;36.88
55317;BME280;41178;48.956;8.130;2024-03-08T22:03:38;98706.78;;;10.70;38.04
55317;BME280;41178;48.956;8.130;2024-03-08T22:08:40;98716.00;;;11.33;37.27
55317;BME280;41178;48.956;8.130;2024-03-08T22:13:44;98554.53;;;12.43;36.95
55317;BME280;41178;48.956;8.130;2024-03-08T22:18:47;98569.66;;;14.11;34.44
55317;BME280;41178;48.956;8.130;2024-03-08T22:23:49;98657.81;;;13.20;35.12
55317;BME280;41178;48.956;8.130;2024-03-08T22:28:51;98745.88;;;11.68;36.50
55317;BME280;41178;48.956;8.130;2024-03-08T22:33:54;98663.06;;;12.29;36.63
55317;BME280;41178;48.956;8.130;2024-03-08T22:38:56;98720.97;;;11.61;36.92
55317;BME280;41178;48.956;8.130;2024-03-08T22:43:58;98703.28;;;11.53;37.21
55317;BME280;41178;48.956;8.130;2024-03-08T22:48:59;98611.56;;;12.02;36.65
55317;BME280;41178;48.956;8.130;2024-03-08T22:54:01;98630.44;;;11.38;37.37
55317;BME280;41178;48.956;8.130;2024-03-08T22:59:03;98592.25;;;11.74;37.34
55317;BME280;41178;48.956;8.130;2024-03-08T23:04:06;98573.16;;;12.38;37.19
55317;BME280;41178;48.956;8.130;2024-03-08T23:09:10;98701.50;;;10.50;38.52
55317;BME280;41178;48.956;8.130;2024-03-08T23:14:15;98661.22;;;7.58;43.66
55317;BME280;41178;48.956;8.130;2024-03-08T23:19:16;98508.53;;;10.46;39.48
55317;BME280;41178;48.956;8.130;2024-03-08T23:24:19;98625.94;;;9.29;40.78
55317;BME280;41178;48.956;8.130;2024-03-08T23:29:20;98658.34;;;8.99;41.12
55317;BME280;41178;48.956;8.130;2024-03-08T23:34:22;98565.31;;;9.70;40.24
55317;BME280;41178;48.956;8.130;2024-03-08T23:39:26;98524.69;;;10.26;39.64
55317;BME280;41178;48.956;8.130;2024-03-08T23:44:28;98674.13;;;8.94;40.64
55317;BME280;41178;48.956;8.130;2024-03-08T23:49:30;98626.75;;;9.36;40.54
55317;BME280;41178;48.956;8.130;2024-03-08T23:54:31;98540.03;;;9.99;40.07
55317;BME280;41178;48.956;8.130;2024-03-08T23:59:34;98683.28;;;8.78;41.44
